Date,TemperatureHighF,TemperatureAvgF,TemperatureLowF,DewpointHighF,DewpointAvgF,DewpointLowF,HumidityHigh,HumidityAvg,HumidityLow,PressureMaxIn,PressureMinIn,WindSpeedMaxMPH,WindSpeedAvgMPH,GustSpeedMaxMPH,PrecipitationSumIn
2013-12-1,71,60,52,60,54,48,86,80,66,30.18,29.93,2,0,6,0.00
2013-12-2,70,60,54,56,53,49,91,79,57,29.93,29.77,5,0,10,0.00
2013-12-3,74,61,50,61,54,47,91,78,60,29.92,29.82,3,0,5,0.00
2013-12-4,78,67,57,67,60,53,92,81,61,30.04,29.89,5,0,7,0.00
2013-12-5,83,70,59,68,62,55,92,78,54,30.11,30.01,4,0,9,0.00
2013-12-6,83,72,63,70,64,59,92,77,57,30.10,30.03,6,0,12,0.01
2013-12-7,84,73,65,71,66,61,92,79,56,30.16,30.07,5,0,12,0.00
2013-12-8,70,66,64,65,63,61,92,88,83,30.20,30.09,5,0,12,0.00
2013-12-9,84,72,64,72,65,62,94,80,56,30.13,30.00,8,1,16,0.00
2013-12-10,79,68,54,71,63,44,91,83,67,30.21,29.97,7,1,15,0.25
2013-12-11,66,57,48,58,50,41,83,78,73,30.25,30.17,5,1,10,0.01
2013-12-12,64,56,46,50,37,23,79,54,22,30.32,30.19,6,0,12,0.00
2013-12-13,66,54,43,55,46,38,86,77,64,30.29,30.07,4,0,10,0.00
2013-12-14,77,66,54,68,61,50,93,86,72,30.08,29.82,8,1,15,0.66
2013-12-15,69,60,48,66,56,42,93,86,75,30.11,29.79,7,0,14,0.28
2013-12-16,59,48,38,42,39,34,86,72,48,30.21,30.09,5,0,10,0.00
2013-12-17,67,51,39,42,38,35,90,66,31,30.23,30.11,4,0,10,0.00
2013-12-18,63,51,43,40,35,23,82,59,24,30.25,30.14,5,0,13,0.00
2013-12-19,71,54,39,56,46,35,90,75,57,30.26,30.14,3,0,10,0.00
2013-12-20,76,61,48,61,53,44,92,77,59,30.17,30.07,4,0,9,0.00
2013-12-21,83,70,58,68,61,54,93,77,51,30.09,29.96,5,1,12,0.00
2013-12-22,84,75,68,72,68,65,93,80,59,30.07,30.00,8,1,16,0.00
2013-12-23,83,74,62,70,67,58,92,80,62,30.08,29.98,7,1,17,0.00
2013-12-24,62,55,44,58,42,31,88,65,35,30.26,30.06,7,1,18,0.01
2013-12-25,60,49,39,52,43,30,86,79,62,30.26,30.18,6,1,15,0.00
2013-12-26,57,53,49,50,47,44,86,81,74,30.23,30.12,4,0,10,0.00
2013-12-27,59,55,51,53,50,46,88,83,74,30.27,30.17,4,1,10,0.00
2013-12-28,68,63,57,65,58,48,92,85,74,30.23,29.92,3,0,9,0.01
2013-12-29,73,69,59,70,65,55,94,87,76,29.96,29.83,9,1,14,1.08
2013-12-30,66,57,48,55,48,45,90,74,51,30.15,29.95,5,0,12,0.00
2013-12-31,62,57,54,51,49,46,84,74,59,30.27,30.13,4,0,9,0.00